createdAt,value
2024-03-03T00:01:27.036Z,103.40
2024-03-03T00:06:30.522Z,110.18
2024-03-03T00:11:35.862Z,97.78
2024-03-03T00:16:43.245Z,105.50
2024-03-03T00:21:49.613Z,98.70
2024-03-03T00:27:03.940Z,102.78
2024-03-03T00:32:25.732Z,103.85
2024-03-03T00:37:53.620Z,103.40
2024-03-03T00:43:29.803Z,96.88
2024-03-03T00:48:51.412Z,97.15
2024-03-03T00:54:05.186Z,99.00
2024-03-03T00:59:32.932Z,93.10
2024-03-03T01:04:53.208Z,87.40
2024-03-03T01:10:22.950Z,94.18
2024-03-03T01:15:55.904Z,95.30
2024-03-03T01:21:16.236Z,92.10
2024-03-03T01:26:39.897Z,95.82
2024-03-03T01:31:47.458Z,83.60
2024-03-03T01:36:58.524Z,82.40
2024-03-03T01:42:03.447Z,87.30
2024-03-03T01:47:10.327Z,83.63
2024-03-03T01:52:15.483Z,81.05
2024-03-03T01:57:22.342Z,85.30
2024-03-03T02:02:28.974Z,91.85
2024-03-03T02:07:32.443Z,84.57
2024-03-03T02:17:39.653Z,82.03
2024-03-03T02:27:46.552Z,88.10
2024-03-03T02:37:52.972Z,84.20
2024-03-03T02:42:56.485Z,82.80
2024-03-03T02:47:59.831Z,87.32
2024-03-03T02:53:03.222Z,83.97
2024-03-03T02:58:07.390Z,81.68
2024-03-03T03:03:10.942Z,78.57
2024-03-03T03:08:14.265Z,77.43
2024-03-03T03:13:17.699Z,76.57
2024-03-03T03:23:25.571Z,75.78
2024-03-03T03:28:29.391Z,78.40
2024-03-03T03:33:32.531Z,74.70
2024-03-03T03:38:35.688Z,70.65
2024-03-03T03:43:38.842Z,70.85
2024-03-03T03:48:42.221Z,76.57
2024-03-03T03:53:45.559Z,77.72
2024-03-03T03:58:49.584Z,84.45
2024-03-03T04:03:52.974Z,73.38
2024-03-03T04:08:59.328Z,79.82
2024-03-03T04:14:02.536Z,74.18
2024-03-03T04:19:09.401Z,78.65
2024-03-03T04:24:15.632Z,80.30
2024-03-03T04:29:21.886Z,77.25
2024-03-03T04:34:27.389Z,77.50
2024-03-03T04:39:33.889Z,68.32
2024-03-03T04:44:39.912Z,73.82
2024-03-03T04:49:54.758Z,81.65
2024-03-03T04:54:57.907Z,81.60
2024-03-03T05:00:01.221Z,87.75
2024-03-03T05:05:06.360Z,92.63
2024-03-03T05:10:10.229Z,89.15
2024-03-03T05:15:13.481Z,95.35
2024-03-03T05:20:16.904Z,84.78
2024-03-03T05:30:23.159Z,94.63
2024-03-03T05:35:26.424Z,103.93
2024-03-03T05:40:30.348Z,96.05
2024-03-03T05:45:33.604Z,108.30
2024-03-03T05:50:36.959Z,107.93
2024-03-03T05:55:40.728Z,101.45
2024-03-03T06:00:43.911Z,101.20
2024-03-03T06:05:47.209Z,104.53
2024-03-03T06:10:50.541Z,104.03
2024-03-03T06:15:53.964Z,111.47
2024-03-03T06:20:58.046Z,102.32
2024-03-03T06:26:01.157Z,100.57
2024-03-03T06:31:04.476Z,108.90
2024-03-03T06:36:07.774Z,105.43
2024-03-03T06:41:10.946Z,104.35
2024-03-03T06:46:14.630Z,98.70
2024-03-03T06:51:18.234Z,94.93
2024-03-03T06:56:21.684Z,96.57
2024-03-03T07:01:26.070Z,95.90
2024-03-03T07:06:29.274Z,93.05
2024-03-03T07:11:32.664Z,84.55
2024-03-03T07:16:39.176Z,87.05
2024-03-03T07:21:43.513Z,96.50
2024-03-03T07:26:49.468Z,92.63
2024-03-03T07:32:16.189Z,93.88
2024-03-03T07:37:22.017Z,98.22
2024-03-03T07:42:25.309Z,95.25
2024-03-03T07:47:29.035Z,104.38
2024-03-03T07:52:33.570Z,95.53
2024-03-03T07:57:44.414Z,101.47
2024-03-03T08:02:47.710Z,103.65
2024-03-03T08:07:50.893Z,98.38
2024-03-03T08:12:55.471Z,97.25
2024-03-03T08:18:02.262Z,89.38
2024-03-03T08:23:11.715Z,87.67
2024-03-03T08:28:14.995Z,94.72
2024-03-03T08:33:18.453Z,85.32
2024-03-03T08:44:03.046Z,86.28
2024-03-03T08:49:29.468Z,90.93
2024-03-03T08:55:17.644Z,78.80
2024-03-03T09:00:23.487Z,75.80
2024-03-03T09:05:28.588Z,71.05
2024-03-03T09:10:35.782Z,63.65
2024-03-03T09:15:39.188Z,60.90
2024-03-03T09:20:44.405Z,57.40
2024-03-03T09:25:48.031Z,56.75
2024-03-03T09:30:52.555Z,59.65
2024-03-03T09:35:56.483Z,61.72
2024-03-03T09:41:00.250Z,52.03
2024-03-03T09:46:06.432Z,50.50
2024-03-03T09:51:25.822Z,57.20
2024-03-03T09:56:31.224Z,74.53
2024-03-03T10:01:38.301Z,52.03
2024-03-03T10:06:43.136Z,50.30
2024-03-03T10:11:46.988Z,41.65
2024-03-03T10:16:52.024Z,43.70
2024-03-03T10:21:58.042Z,43.53
2024-03-03T10:27:06.292Z,44.35
2024-03-03T10:38:35.528Z,45.58
2024-03-03T10:43:38.872Z,42.50
2024-03-03T10:48:45.572Z,39.90
2024-03-03T10:53:55.781Z,33.95
2024-03-03T10:58:59.619Z,38.20
2024-03-03T11:04:08.185Z,33.33
2024-03-03T11:09:13.148Z,32.08
2024-03-03T11:14:24.804Z,39.33
2024-03-03T11:19:57.662Z,31.83
2024-03-03T11:25:08.524Z,31.08
2024-03-03T11:30:16.775Z,33.10
2024-03-03T11:35:26.876Z,27.40
2024-03-03T11:40:35.565Z,31.35
2024-03-03T11:45:50.582Z,26.75
2024-03-03T11:51:32.822Z,26.77
2024-03-03T11:57:01.630Z,29.48
2024-03-03T12:02:09.798Z,25.27
2024-03-03T12:07:19.281Z,23.15
2024-03-03T12:12:23.238Z,24.08
2024-03-03T12:17:26.790Z,23.80
2024-03-03T12:22:34.711Z,20.58
2024-03-03T12:27:38.754Z,18.65
2024-03-03T12:32:49.922Z,16.52
2024-03-03T12:37:56.129Z,16.17
2024-03-03T12:43:00.862Z,12.50
2024-03-03T12:48:08.722Z,16.50
2024-03-03T12:53:23.462Z,35.50
2024-03-03T12:58:45.870Z,28.77
2024-03-03T13:03:54.847Z,23.80
2024-03-03T13:09:04.529Z,21.60
2024-03-03T13:14:09.581Z,28.55
2024-03-03T13:19:19.078Z,25.10
2024-03-03T13:24:23.975Z,28.35
2024-03-03T13:29:34.551Z,28.10
2024-03-03T13:35:06.347Z,38.50
2024-03-03T13:40:46.967Z,34.78
2024-03-03T13:46:06.517Z,38.50
2024-03-03T13:51:55.731Z,34.72
2024-03-03T13:57:05.619Z,36.03
2024-03-03T14:02:49.340Z,34.08
2024-03-03T14:08:08.601Z,34.85
2024-03-03T14:13:14.429Z,31.33
2024-03-03T14:18:19.132Z,30.55
2024-03-03T14:23:26.369Z,28.30
2024-03-03T14:28:35.748Z,30.55
2024-03-03T14:34:06.153Z,28.77
2024-03-03T14:39:32.428Z,27.30
2024-03-03T14:45:30.519Z,28.35
2024-03-03T14:51:07.648Z,26.60
2024-03-03T14:56:23.398Z,26.10
2024-03-03T15:01:26.824Z,21.17
2024-03-03T15:06:30.531Z,21.50
2024-03-03T15:11:34.553Z,22.42
2024-03-03T15:16:37.807Z,22.02
2024-03-03T15:26:44.177Z,23.73
2024-03-03T15:31:48.715Z,24.52
2024-03-03T15:36:51.907Z,29.65
2024-03-03T15:41:55.239Z,29.15
2024-03-03T15:52:04.918Z,24.30
2024-03-03T15:57:08.349Z,32.00
2024-03-03T16:02:11.560Z,25.08
2024-03-03T16:07:15.580Z,26.88
2024-03-03T16:12:22.171Z,29.45
2024-03-03T16:17:25.648Z,34.55
2024-03-03T16:22:40.304Z,24.33
2024-03-03T16:27:49.496Z,22.95
2024-03-03T16:33:08.057Z,20.77
2024-03-03T16:38:27.140Z,24.80
2024-03-03T16:43:46.092Z,29.33
2024-03-03T16:48:52.281Z,27.48
2024-03-03T16:54:00.521Z,25.13
2024-03-03T16:59:08.300Z,27.40
2024-03-03T17:04:15.689Z,25.48
2024-03-03T17:09:26.031Z,34.22
2024-03-03T17:14:35.082Z,24.73
2024-03-03T17:19:38.166Z,28.83
2024-03-03T17:24:42.975Z,30.70
2024-03-03T17:29:50.180Z,31.30
2024-03-03T17:34:58.406Z,28.38
2024-03-03T17:40:06.575Z,29.60
2024-03-03T17:45:11.551Z,32.45
2024-03-03T17:50:18.444Z,33.88
2024-03-03T17:55:22.754Z,32.35
2024-03-03T18:00:29.077Z,38.28
2024-03-03T18:05:37.192Z,35.30
2024-03-03T18:10:56.380Z,31.10
2024-03-03T18:16:31.446Z,30.25
2024-03-03T18:21:47.454Z,27.35
2024-03-03T18:26:52.544Z,28.58
2024-03-03T18:32:03.247Z,29.75
2024-03-03T18:37:07.069Z,31.35
2024-03-03T18:47:53.240Z,29.38
2024-03-03T18:52:57.153Z,26.90
2024-03-03T18:58:01.126Z,25.98
2024-03-03T19:08:08.918Z,32.28
2024-03-03T19:13:13.923Z,29.52
2024-03-03T19:18:17.392Z,36.17
2024-03-03T19:23:28.853Z,28.92
2024-03-03T19:38:41.440Z,40.65
2024-03-03T19:43:47.042Z,39.05
2024-03-03T19:48:51.968Z,39.72
2024-03-03T19:53:58.941Z,46.15
2024-03-03T19:59:36.804Z,43.63
2024-03-03T20:05:05.805Z,48.47
2024-03-03T20:10:19.915Z,47.38
2024-03-03T20:15:27.550Z,52.50
2024-03-03T20:20:35.010Z,54.58
2024-03-03T20:25:38.547Z,54.42
2024-03-03T20:35:48.265Z,51.00
2024-03-03T20:41:06.466Z,51.53
2024-03-03T20:46:31.115Z,52.08
2024-03-03T20:51:58.924Z,65.45
2024-03-03T20:57:23.163Z,65.07
2024-03-03T21:02:51.256Z,57.65
2024-03-03T21:08:19.610Z,62.45
2024-03-03T21:13:39.858Z,60.83
2024-03-03T21:19:05.826Z,63.65
2024-03-03T21:24:09.079Z,67.38
2024-03-03T21:29:31.201Z,85.60
2024-03-03T21:34:42.056Z,91.25
2024-03-03T21:40:16.411Z,79.70
2024-03-03T21:45:20.693Z,103.95
2024-03-03T21:50:34.531Z,108.57
2024-03-03T21:55:57.538Z,98.90
2024-03-03T22:01:22.006Z,92.87
2024-03-03T22:06:52.778Z,104.07
2024-03-03T22:11:57.316Z,94.13
2024-03-03T22:17:00.799Z,87.03
2024-03-03T22:22:11.607Z,77.10
2024-03-03T22:27:14.979Z,83.43
2024-03-03T22:32:18.901Z,79.05
2024-03-03T22:37:38.325Z,69.63
2024-03-03T22:42:42.753Z,82.00
2024-03-03T22:47:57.241Z,66.05
2024-03-03T22:53:00.873Z,58.45
2024-03-03T22:58:12.454Z,64.63
2024-03-03T23:03:37.565Z,71.53
2024-03-03T23:09:14.742Z,65.53
2024-03-03T23:14:23.602Z,57.30
2024-03-03T23:19:28.524Z,58.63
2024-03-03T23:24:33.761Z,62.33
2024-03-03T23:29:38.065Z,52.58
2024-03-03T23:34:41.504Z,67.43
2024-03-03T23:39:52.891Z,58.60
2024-03-03T23:44:58.568Z,59.22
2024-03-03T23:55:24.312Z,57.05
